createdAt,value
2019-04-10T00:01:09.617Z,45.38
2019-04-10T00:03:41.780Z,45.35
2019-04-10T00:06:08.811Z,46.56
2019-04-10T00:08:37.002Z,46.10
2019-04-10T00:11:05.138Z,53.45
2019-04-10T00:13:34.183Z,52.49
2019-04-10T00:16:03.560Z,48.89
2019-04-10T00:18:31.896Z,47.70
2019-04-10T00:21:00.818Z,47.46
2019-04-10T00:23:29.108Z,47.09
2019-04-10T00:25:57.347Z,46.93
2019-04-10T00:28:25.562Z,47.58
2019-04-10T00:30:53.740Z,49.35
2019-04-10T00:33:22.888Z,52.21
2019-04-10T00:35:52.072Z,46.02
2019-04-10T00:38:20.174Z,45.31
2019-04-10T00:40:48.329Z,46.72
2019-04-10T00:43:17.041Z,45.50
2019-04-10T00:45:45.974Z,52.63
2019-04-10T00:48:15.278Z,52.50
2019-04-10T00:50:44.611Z,53.03
2019-04-10T00:53:12.844Z,47.66
2019-04-10T00:55:41.011Z,45.44
2019-04-10T00:58:09.971Z,51.54
2019-04-10T01:00:39.176Z,46.08
2019-04-10T01:03:07.576Z,46.36
2019-04-10T01:05:35.707Z,50.39
2019-04-10T01:08:04.484Z,56.54
2019-04-10T01:10:34.582Z,57.07
2019-04-10T01:13:04.824Z,49.93
2019-04-10T01:15:34.365Z,51.00
2019-04-10T01:18:02.623Z,49.29
2019-04-10T01:20:31.319Z,55.27
2019-04-10T01:22:59.638Z,47.58
2019-04-10T01:25:27.786Z,51.18
2019-04-10T01:27:56.293Z,61.11
2019-04-10T01:30:24.736Z,57.10
2019-04-10T01:32:52.917Z,51.14
2019-04-10T01:35:21.046Z,55.77
2019-04-10T01:37:54.776Z,57.76
2019-04-10T01:40:20.228Z,60.64
2019-04-10T01:43:02.525Z,48.35
2019-04-10T01:45:19.522Z,58.91
2019-04-10T01:47:47.710Z,58.21
2019-04-10T01:50:15.897Z,51.77
2019-04-10T01:52:44.924Z,58.05
2019-04-10T01:55:21.155Z,60.53
2019-04-10T01:57:44.144Z,48.86
2019-04-10T02:00:16.325Z,51.73
2019-04-10T02:02:49.971Z,51.73
2019-04-10T02:05:18.712Z,55.54
2019-04-10T02:07:59.619Z,49.86
2019-04-10T02:10:17.102Z,50.25
2019-04-10T02:12:47.244Z,55.39
2019-04-10T02:15:15.931Z,48.60
2019-04-10T02:17:44.516Z,47.40
2019-04-10T02:20:13.031Z,48.53
2019-04-10T02:22:41.158Z,60.59
2019-04-10T02:25:11.593Z,48.47
2019-04-10T02:27:40.567Z,46.88
2019-04-10T02:30:12.050Z,46.63
2019-04-10T02:32:41.506Z,46.38
2019-04-10T02:35:15.222Z,46.27
2019-04-10T02:37:41.715Z,51.63
2019-04-10T02:40:12.829Z,47.37
2019-04-10T02:42:41.563Z,47.96
2019-04-10T02:45:12.563Z,52.72
2019-04-10T02:47:41.250Z,58.30
2019-04-10T02:50:10.475Z,56.40
2019-04-10T02:52:41.166Z,51.79
2019-04-10T02:55:11.628Z,51.12
2019-04-10T02:57:39.279Z,49.81
2019-04-10T03:00:13.909Z,54.32
2019-04-10T03:02:42.022Z,47.33
2019-04-10T03:05:10.909Z,46.71
2019-04-10T03:07:40.379Z,46.84
2019-04-10T03:10:20.380Z,55.17
2019-04-10T03:12:40.951Z,46.96
2019-04-10T03:15:10.510Z,46.38
2019-04-10T03:17:40.063Z,46.33
2019-04-10T03:20:10.046Z,56.23
2019-04-10T03:22:38.238Z,49.26
2019-04-10T03:25:06.782Z,47.24
2019-04-10T03:27:34.897Z,46.29
2019-04-10T03:30:03.135Z,55.29
2019-04-10T03:32:55.922Z,47.14
2019-04-10T03:35:26.971Z,46.87
2019-04-10T03:37:55.642Z,46.12
2019-04-10T03:40:23.778Z,46.25
2019-04-10T03:42:52.956Z,46.33
2019-04-10T03:45:22.420Z,47.01
2019-04-10T03:47:51.528Z,47.18
2019-04-10T03:50:19.761Z,46.55
2019-04-10T03:52:47.948Z,46.41
2019-04-10T03:55:16.756Z,46.21
2019-04-10T03:57:46.921Z,47.70
2019-04-10T04:00:16.188Z,46.99
2019-04-10T04:02:46.304Z,46.19
2019-04-10T04:05:14.762Z,46.28
2019-04-10T04:07:43.200Z,46.42
2019-04-10T04:10:35.048Z,46.69
2019-04-10T04:13:06.111Z,50.44
2019-04-10T04:15:33.727Z,48.00
2019-04-10T04:18:02.497Z,46.87
2019-04-10T04:20:30.846Z,61.28
2019-04-10T04:22:59.231Z,48.10
2019-04-10T04:25:27.404Z,57.58
2019-04-10T04:27:55.574Z,50.28
2019-04-10T04:30:24.652Z,61.39
2019-04-10T04:32:53.912Z,64.09
2019-04-10T04:35:22.389Z,65.64
2019-04-10T04:37:50.668Z,49.64
2019-04-10T04:40:19.703Z,47.69
2019-04-10T04:42:48.054Z,47.40
2019-04-10T04:45:17.340Z,47.32
2019-04-10T04:47:45.633Z,47.07
2019-04-10T04:50:13.874Z,46.94
2019-04-10T04:52:42.081Z,46.65
2019-04-10T04:55:10.199Z,47.17
2019-04-10T04:57:39.659Z,47.83
2019-04-10T05:00:09.438Z,46.52
2019-04-10T05:02:39.189Z,46.73
2019-04-10T05:05:08.746Z,46.75
2019-04-10T05:07:39.616Z,46.43
2019-04-10T05:10:09.094Z,46.62
2019-04-10T05:12:38.096Z,46.54
2019-04-10T05:15:06.728Z,46.42
2019-04-10T05:17:35.202Z,47.14
2019-04-10T05:20:05.039Z,46.48
2019-04-10T05:22:34.011Z,46.20
2019-04-10T05:25:03.017Z,62.55
2019-04-10T05:27:33.058Z,49.19
2019-04-10T05:30:02.333Z,61.54
2019-04-10T05:32:31.309Z,60.05
2019-04-10T05:34:59.475Z,62.22
2019-04-10T05:37:27.633Z,62.06
2019-04-10T05:39:55.986Z,61.18
2019-04-10T05:42:24.805Z,59.75
2019-04-10T05:44:52.977Z,45.91
2019-04-10T05:47:21.454Z,56.05
2019-04-10T05:49:49.679Z,54.48
2019-04-10T05:52:18.215Z,54.23
2019-04-10T05:54:47.316Z,54.00
2019-04-10T05:57:15.881Z,55.01
2019-04-10T05:59:44.139Z,53.96
2019-04-10T06:02:12.319Z,54.35
2019-04-10T06:04:41.212Z,54.58
2019-04-10T06:07:10.642Z,46.36
2019-04-10T06:09:38.875Z,54.78
2019-04-10T06:12:07.247Z,53.30
2019-04-10T06:14:35.491Z,48.09
2019-04-10T06:17:04.271Z,55.70
2019-04-10T06:19:32.818Z,54.01
2019-04-10T06:22:01.132Z,52.97
2019-04-10T06:24:29.965Z,52.00
2019-04-10T06:26:58.249Z,46.44
2019-04-10T06:29:26.755Z,53.37
2019-04-10T06:31:54.996Z,46.02
2019-04-10T06:34:23.160Z,47.74
2019-04-10T06:36:51.602Z,43.34
2019-04-10T06:39:20.503Z,43.86
2019-04-10T06:41:48.878Z,48.59
2019-04-10T06:44:17.577Z,44.46
2019-04-10T06:46:47.002Z,45.05
2019-04-10T06:49:55.449Z,45.70
2019-04-10T06:52:24.995Z,46.31
2019-04-10T06:54:54.103Z,46.50
2019-04-10T06:57:22.970Z,46.35
2019-04-10T06:59:51.104Z,46.42
2019-04-10T07:02:25.622Z,46.95
2019-04-10T07:04:54.443Z,46.64
2019-04-10T07:07:21.591Z,46.91
2019-04-10T07:09:49.583Z,47.26
2019-04-10T07:12:18.602Z,48.62
2019-04-10T07:14:50.678Z,47.71
2019-04-10T07:17:18.034Z,47.39
2019-04-10T07:19:46.214Z,47.05
2019-04-10T07:22:16.232Z,47.03
2019-04-10T07:24:44.234Z,47.10
2019-04-10T07:27:12.510Z,47.53
2019-04-10T07:29:40.652Z,46.72
2019-04-10T07:32:11.684Z,46.07
2019-04-10T07:34:38.742Z,45.69
2019-04-10T07:37:09.449Z,49.32
2019-04-10T07:39:37.482Z,46.87
2019-04-10T07:42:06.756Z,48.90
2019-04-10T07:44:35.040Z,45.14
2019-04-10T07:47:03.318Z,44.84
2019-04-10T07:49:32.872Z,46.76
2019-04-10T07:52:02.446Z,46.99
2019-04-10T07:54:31.258Z,45.36
2019-04-10T07:56:59.909Z,44.82
2019-04-10T07:59:29.236Z,44.43
2019-04-10T08:01:58.239Z,46.20
2019-04-10T08:04:26.868Z,44.64
2019-04-10T08:06:55.553Z,44.67
2019-04-10T08:09:24.308Z,44.51
2019-04-10T08:11:52.652Z,44.13
2019-04-10T08:14:21.712Z,44.00
2019-04-10T08:16:50.217Z,44.36
2019-04-10T08:19:18.713Z,43.99
2019-04-10T08:21:46.849Z,43.69
2019-04-10T08:24:15.767Z,42.21
2019-04-10T08:26:45.055Z,43.40
2019-04-10T08:29:14.236Z,43.64
2019-04-10T08:31:42.400Z,42.73
2019-04-10T08:34:10.985Z,42.40
2019-04-10T08:36:39.521Z,42.25
2019-04-10T08:39:08.588Z,43.75
2019-04-10T08:41:37.278Z,42.41
2019-04-10T08:44:06.479Z,42.62
2019-04-10T08:46:35.769Z,40.85
2019-04-10T08:49:04.137Z,45.27
2019-04-10T08:51:33.186Z,42.39
2019-04-10T08:54:02.634Z,41.50
2019-04-10T08:56:30.923Z,41.15
2019-04-10T08:58:59.336Z,40.54
2019-04-10T09:01:27.503Z,40.50
2019-04-10T09:03:55.633Z,39.12
2019-04-10T09:06:23.776Z,38.37
2019-04-10T09:08:53.564Z,44.97
2019-04-10T09:11:26.506Z,40.18
2019-04-10T09:13:52.782Z,39.16
2019-04-10T09:16:21.087Z,39.03
2019-04-10T09:18:49.517Z,38.76
2019-04-10T09:21:17.641Z,38.77
2019-04-10T09:23:52.317Z,35.07
2019-04-10T09:26:15.811Z,40.35
2019-04-10T09:28:44.089Z,39.24
2019-04-10T09:31:13.476Z,38.55
2019-04-10T09:33:41.702Z,39.71
2019-04-10T09:36:10.947Z,38.45
2019-04-10T09:38:39.345Z,38.45
2019-04-10T09:41:07.783Z,34.60
2019-04-10T09:43:36.149Z,39.82
2019-04-10T09:46:04.429Z,41.23
2019-04-10T09:48:33.691Z,38.03
2019-04-10T09:51:01.935Z,37.17
2019-04-10T09:53:30.113Z,37.31
2019-04-10T09:55:58.454Z,36.08
2019-04-10T09:58:26.648Z,35.84
2019-04-10T10:00:54.915Z,35.85
2019-04-10T10:03:24.123Z,35.07
2019-04-10T10:05:53.085Z,35.40
2019-04-10T10:08:21.185Z,33.34
2019-04-10T10:10:49.402Z,34.37
2019-04-10T10:13:17.607Z,40.01
2019-04-10T10:15:45.780Z,37.23
2019-04-10T10:18:14.101Z,35.85
2019-04-10T10:20:42.471Z,37.06
2019-04-10T10:23:11.782Z,34.03
2019-04-10T10:25:40.035Z,35.63
2019-04-10T10:28:09.103Z,35.63
2019-04-10T10:30:37.716Z,35.31
2019-04-10T10:33:06.165Z,35.82
2019-04-10T10:35:35.481Z,35.78
2019-04-10T10:38:04.370Z,33.25
2019-04-10T10:40:33.953Z,33.42
2019-04-10T10:43:02.495Z,33.01
2019-04-10T10:45:31.134Z,33.61
2019-04-10T10:47:59.405Z,36.55
2019-04-10T10:50:27.584Z,34.62
2019-04-10T10:52:55.838Z,33.30
2019-04-10T10:55:24.042Z,35.12
2019-04-10T10:57:52.294Z,33.16
2019-04-10T11:00:23.115Z,31.09
2019-04-10T11:02:51.890Z,31.43
2019-04-10T11:05:21.147Z,29.19
2019-04-10T11:07:49.415Z,31.76
2019-04-10T11:10:22.851Z,30.10
2019-04-10T11:12:48.342Z,30.98
2019-04-10T11:15:16.633Z,31.79
2019-04-10T11:17:44.791Z,26.80
2019-04-10T11:20:15.184Z,31.16
2019-04-10T11:22:43.457Z,30.74
2019-04-10T11:25:12.215Z,30.29
2019-04-10T11:27:41.996Z,31.63
2019-04-10T11:30:12.526Z,32.47
2019-04-10T11:32:42.189Z,31.65
2019-04-10T11:35:11.174Z,31.67
2019-04-10T11:37:44.398Z,31.22
2019-04-10T11:40:09.807Z,34.43
2019-04-10T11:42:40.183Z,32.88
2019-04-10T11:45:10.193Z,31.01
2019-04-10T11:47:37.492Z,33.63
2019-04-10T11:50:09.408Z,31.34
2019-04-10T11:52:42.500Z,33.72
2019-04-10T11:55:13.744Z,29.39
2019-04-10T11:57:37.312Z,35.80
2019-04-10T12:00:12.239Z,35.09
2019-04-10T12:02:39.432Z,34.35
2019-04-10T12:05:12.025Z,30.59
2019-04-10T12:08:04.110Z,35.70
2019-04-10T12:12:37.597Z,37.53
2019-04-10T12:15:07.945Z,31.60
2019-04-10T12:17:36.435Z,28.06
2019-04-10T12:20:06.958Z,30.77
2019-04-10T12:22:35.872Z,31.74
2019-04-10T12:25:04.841Z,30.62
2019-04-10T12:27:33.523Z,28.54
2019-04-10T12:30:02.895Z,29.36
2019-04-10T12:32:31.254Z,29.13
2019-04-10T12:35:00.327Z,25.30
2019-04-10T12:37:28.707Z,27.69
2019-04-10T12:39:57.157Z,29.27
2019-04-10T12:42:25.511Z,31.88
2019-04-10T12:44:53.638Z,30.10
2019-04-10T12:47:21.838Z,30.86
2019-04-10T12:49:49.978Z,26.99
2019-04-10T12:52:18.511Z,28.04
2019-04-10T12:54:47.056Z,22.29
2019-04-10T12:57:15.276Z,28.37
2019-04-10T12:59:43.722Z,27.93
2019-04-10T13:02:13.126Z,28.07
2019-04-10T13:04:42.885Z,30.39
2019-04-10T13:07:11.665Z,27.79
2019-04-10T13:09:40.216Z,29.99
2019-04-10T13:12:09.033Z,29.40
2019-04-10T13:14:37.359Z,27.15
2019-04-10T13:17:06.725Z,30.54
2019-04-10T13:19:35.717Z,26.40
2019-04-10T13:22:04.128Z,25.17
2019-04-10T13:24:33.369Z,31.31
2019-04-10T13:27:01.950Z,27.09
2019-04-10T13:29:30.140Z,21.63
2019-04-10T13:31:59.299Z,23.04
2019-04-10T13:34:27.577Z,30.31
2019-04-10T13:36:55.800Z,24.51
2019-04-10T13:39:24.617Z,24.76
2019-04-10T13:41:52.779Z,23.93
2019-04-10T13:44:20.928Z,25.31
2019-04-10T13:46:49.151Z,25.19
2019-04-10T13:49:17.781Z,25.08
2019-04-10T13:51:47.694Z,25.03
2019-04-10T13:54:16.070Z,24.50
2019-04-10T13:56:45.402Z,28.34
2019-04-10T13:59:15.036Z,24.61
2019-04-10T14:01:43.937Z,24.38
2019-04-10T14:04:12.284Z,23.57
2019-04-10T14:06:41.372Z,24.57
2019-04-10T14:09:30.126Z,23.34
2019-04-10T14:11:47.215Z,25.14
2019-04-10T14:14:16.199Z,25.78
2019-04-10T14:16:44.722Z,24.96
2019-04-10T14:19:15.058Z,23.38
2019-04-10T14:21:43.333Z,25.95
2019-04-10T14:24:11.957Z,20.58
2019-04-10T14:27:08.427Z,24.52
2019-04-10T14:29:36.631Z,23.06
2019-04-10T14:32:09.130Z,23.88
2019-04-10T14:34:38.683Z,23.74
2019-04-10T14:37:11.516Z,20.08
2019-04-10T14:39:40.803Z,24.80
2019-04-10T14:42:10.285Z,24.64
2019-04-10T14:44:38.939Z,26.30
2019-04-10T14:47:07.223Z,21.22
2019-04-10T14:49:37.566Z,29.88
2019-04-10T14:52:05.803Z,24.97
2019-04-10T14:54:33.983Z,26.25
2019-04-10T14:57:02.461Z,25.36
2019-04-10T14:59:31.786Z,24.70
2019-04-10T15:02:00.162Z,25.65
2019-04-10T15:04:28.906Z,20.86
2019-04-10T15:06:57.586Z,27.33
2019-04-10T15:09:26.300Z,21.96
2019-04-10T15:11:55.294Z,27.54
2019-04-10T15:14:23.831Z,23.27
2019-04-10T15:16:55.488Z,27.34
2019-04-10T15:19:22.617Z,26.39
2019-04-10T15:21:52.288Z,26.14
2019-04-10T15:24:21.634Z,25.32
2019-04-10T15:26:50.900Z,24.79
2019-04-10T15:29:20.432Z,25.60
2019-04-10T15:31:50.159Z,24.93
2019-04-10T15:34:18.502Z,24.79
2019-04-10T15:36:48.042Z,24.47
2019-04-10T15:39:16.817Z,24.67
2019-04-10T15:41:45.580Z,27.07
2019-04-10T15:44:14.095Z,25.81
2019-04-10T15:46:43.546Z,24.86
2019-04-10T15:49:11.788Z,25.97
2019-04-10T15:51:41.275Z,25.57
2019-04-10T15:54:09.762Z,25.10
2019-04-10T15:56:38.183Z,24.49
2019-04-10T15:59:06.321Z,24.83
2019-04-10T16:01:35.149Z,23.13
2019-04-10T16:04:03.494Z,26.08
2019-04-10T16:06:31.628Z,22.26
2019-04-10T16:09:00.918Z,25.96
2019-04-10T16:11:54.381Z,25.46
2019-04-10T16:14:26.213Z,25.52
2019-04-10T16:17:17.949Z,26.25
2019-04-10T16:19:56.381Z,24.94
2019-04-10T16:22:35.993Z,21.84
2019-04-10T16:25:07.396Z,26.31
2019-04-10T16:27:35.602Z,25.49
2019-04-10T16:30:06.026Z,28.47
2019-04-10T16:32:34.935Z,29.77
2019-04-10T16:35:03.245Z,27.75
2019-04-10T16:37:31.405Z,29.59
2019-04-10T16:40:03.978Z,30.27
2019-04-10T16:42:30.745Z,29.09
2019-04-10T16:44:59.734Z,28.70
2019-04-10T16:47:28.271Z,28.26
2019-04-10T16:49:57.215Z,28.81
2019-04-10T16:52:25.679Z,26.02
2019-04-10T16:54:53.983Z,29.53
2019-04-10T16:57:22.677Z,24.30
2019-04-10T16:59:51.035Z,29.07
2019-04-10T17:02:20.067Z,28.97
2019-04-10T17:04:48.250Z,29.71
2019-04-10T17:07:16.953Z,30.08
2019-04-10T17:09:45.453Z,25.23
2019-04-10T17:12:13.753Z,29.86
2019-04-10T17:14:42.071Z,29.29
2019-04-10T17:17:10.415Z,31.00
2019-04-10T17:19:48.780Z,27.67
2019-04-10T17:22:08.950Z,30.33
2019-04-10T17:24:37.601Z,30.47
2019-04-10T17:27:06.422Z,30.63
2019-04-10T17:29:35.083Z,30.59
2019-04-10T17:32:03.238Z,30.51
2019-04-10T17:34:32.597Z,30.71
2019-04-10T17:37:01.225Z,30.43
2019-04-10T17:39:29.461Z,30.21
2019-04-10T17:41:57.894Z,30.86
2019-04-10T17:44:26.099Z,30.50
2019-04-10T17:46:55.630Z,30.14
2019-04-10T17:49:23.981Z,30.97
2019-04-10T17:51:52.616Z,27.24
2019-04-10T17:54:20.978Z,30.75
2019-04-10T17:56:49.141Z,30.98
2019-04-10T17:59:18.366Z,30.68
2019-04-10T18:01:47.239Z,30.78
2019-04-10T18:04:16.019Z,31.06
2019-04-10T18:06:45.955Z,31.06
2019-04-10T18:09:14.249Z,31.22
2019-04-10T18:11:43.489Z,31.42
2019-04-10T18:14:11.774Z,31.53
2019-04-10T18:16:40.175Z,31.80
2019-04-10T18:19:08.522Z,31.90
2019-04-10T18:21:37.106Z,32.10
2019-04-10T18:24:06.235Z,32.31
2019-04-10T18:26:34.553Z,32.61
2019-04-10T18:29:02.758Z,32.79
2019-04-10T18:31:30.997Z,33.32
2019-04-10T18:33:59.376Z,33.63
2019-04-10T18:36:27.823Z,33.82
2019-04-10T18:38:55.975Z,33.88
2019-04-10T18:41:24.261Z,34.32
2019-04-10T18:43:52.876Z,34.27
2019-04-10T18:46:22.411Z,34.46
2019-04-10T18:48:51.389Z,34.84
2019-04-10T18:51:19.683Z,34.93
2019-04-10T18:53:47.841Z,34.99
2019-04-10T18:56:16.682Z,35.28
2019-04-10T18:58:56.274Z,35.82
2019-04-10T19:01:47.374Z,36.35
2019-04-10T19:04:34.852Z,36.29
2019-04-10T19:07:04.859Z,36.36
2019-04-10T19:09:36.811Z,36.60
2019-04-10T19:12:05.329Z,36.78
2019-04-10T19:14:36.637Z,36.97
2019-04-10T19:17:03.771Z,37.31
2019-04-10T19:19:32.497Z,37.66
2019-04-10T19:22:01.965Z,37.59
2019-04-10T19:24:30.637Z,37.91
2019-04-10T19:27:00.010Z,37.94
2019-04-10T19:29:29.585Z,38.11
2019-04-10T19:32:01.876Z,38.42
2019-04-10T19:34:30.328Z,38.42
2019-04-10T19:36:58.830Z,38.64
2019-04-10T19:39:27.059Z,38.82
2019-04-10T19:41:55.709Z,39.51
2019-04-10T19:44:24.026Z,39.50
2019-04-10T19:46:52.206Z,39.59
2019-04-10T19:49:20.370Z,39.98
2019-04-10T19:51:48.790Z,39.77
2019-04-10T19:54:17.802Z,39.58
2019-04-10T19:56:46.087Z,39.83
2019-04-10T19:59:14.557Z,40.00
2019-04-10T20:01:42.826Z,39.69
2019-04-10T20:04:10.962Z,40.09
2019-04-10T20:06:39.190Z,40.40
2019-04-10T20:09:10.374Z,40.31
2019-04-10T20:11:43.381Z,40.42
2019-04-10T20:14:08.906Z,40.54
2019-04-10T20:16:37.497Z,40.88
2019-04-10T20:19:05.932Z,40.96
2019-04-10T20:21:34.300Z,41.24
2019-04-10T20:24:02.774Z,41.38
2019-04-10T20:26:31.478Z,41.48
2019-04-10T20:29:00.138Z,41.64
2019-04-10T20:34:21.583Z,42.00
2019-04-10T20:36:49.734Z,41.75
2019-04-10T20:39:18.020Z,41.93
2019-04-10T20:41:51.880Z,42.56
2019-04-10T20:44:16.577Z,42.14
2019-04-10T20:46:46.561Z,41.96
2019-04-10T20:49:14.810Z,41.82
2019-04-10T20:51:43.990Z,42.21
2019-04-10T20:54:12.738Z,42.20
2019-04-10T20:56:41.275Z,41.99
2019-04-10T20:59:09.987Z,41.87
2019-04-10T21:01:39.276Z,41.87
2019-04-10T21:04:07.637Z,42.09
2019-04-10T21:06:36.992Z,42.40
2019-04-10T21:09:07.870Z,42.43
2019-04-10T21:11:36.021Z,42.52
2019-04-10T21:14:05.188Z,42.62
2019-04-10T21:16:35.681Z,42.58
2019-04-10T21:19:04.546Z,42.70
2019-04-10T21:21:34.878Z,42.40
2019-04-10T21:24:04.871Z,42.54
2019-04-10T21:26:34.660Z,42.78
2019-04-10T21:29:05.153Z,42.85
2019-04-10T21:31:48.331Z,42.65
2019-04-10T21:34:20.346Z,42.82
2019-04-10T21:36:48.993Z,52.62
2019-04-10T21:39:17.231Z,44.56
2019-04-10T21:41:46.528Z,43.22
2019-04-10T21:44:16.091Z,43.26
2019-04-10T21:46:45.264Z,46.53
2019-04-10T21:49:13.513Z,43.67
2019-04-10T21:51:42.774Z,43.09
2019-04-10T21:54:11.878Z,52.51
2019-04-10T21:56:40.925Z,43.88
2019-04-10T21:59:11.093Z,43.81
2019-04-10T22:01:40.293Z,43.27
2019-04-10T22:04:08.697Z,43.29
2019-04-10T22:06:56.039Z,43.59
2019-04-10T22:10:08.023Z,43.53
2019-04-10T22:12:42.171Z,43.58
2019-04-10T22:15:15.541Z,44.39
2019-04-10T22:17:44.595Z,43.80
2019-04-10T22:20:14.946Z,43.78
2019-04-10T22:22:43.375Z,43.66
2019-04-10T22:25:11.589Z,43.25
2019-04-10T22:27:39.789Z,43.43
2019-04-10T22:30:08.558Z,43.77
2019-04-10T22:32:36.733Z,43.72
2019-04-10T22:35:25.811Z,43.56
2019-04-10T22:37:55.408Z,43.42
2019-04-10T22:40:23.719Z,43.39
2019-04-10T22:42:51.939Z,43.59
2019-04-10T22:45:40.835Z,43.62
2019-04-10T22:48:09.314Z,43.56
2019-04-10T22:50:38.554Z,43.70
2019-04-10T22:53:07.404Z,43.75
2019-04-10T22:55:35.788Z,50.66
2019-04-10T22:58:04.509Z,45.60
2019-04-10T23:00:33.918Z,43.23
2019-04-10T23:03:03.150Z,49.39
2019-04-10T23:05:32.292Z,51.48
2019-04-10T23:08:01.145Z,44.78
2019-04-10T23:10:29.457Z,43.19
2019-04-10T23:13:01.681Z,42.88
2019-04-10T23:15:27.497Z,49.66
2019-04-10T23:17:55.675Z,43.23
2019-04-10T23:20:23.851Z,42.51
2019-04-10T23:22:52.593Z,43.73
2019-04-10T23:25:22.459Z,48.57
2019-04-10T23:27:54.404Z,56.39
2019-04-10T23:30:21.547Z,57.63
2019-04-10T23:32:49.712Z,43.30
2019-04-10T23:35:18.811Z,43.15
2019-04-10T23:37:47.819Z,53.69
2019-04-10T23:40:16.865Z,43.00
2019-04-10T23:42:46.251Z,42.87
2019-04-10T23:45:15.546Z,42.78
2019-04-10T23:47:44.568Z,53.30
2019-04-10T23:50:12.731Z,56.54
2019-04-10T23:52:41.180Z,47.91
2019-04-10T23:55:10.900Z,43.75
2019-04-10T23:57:39.134Z,53.18
